createdAt,value
2022-10-08T00:00:30.059Z,74.52
2022-10-08T00:02:56.495Z,75.09
2022-10-08T00:05:23.068Z,75.28
2022-10-08T00:07:49.478Z,74.98
2022-10-08T00:10:16.105Z,75.00
2022-10-08T00:12:42.509Z,75.00
2022-10-08T00:15:09.800Z,75.39
2022-10-08T00:17:37.538Z,75.49
2022-10-08T00:20:04.512Z,75.64
2022-10-08T00:22:30.977Z,75.78
2022-10-08T00:24:57.400Z,75.53
2022-10-08T00:27:23.912Z,75.74
2022-10-08T00:29:51.212Z,75.82
2022-10-08T00:32:19.004Z,76.05
2022-10-08T00:34:46.983Z,75.97
2022-10-08T00:37:14.561Z,75.76
2022-10-08T00:39:41.237Z,75.73
2022-10-08T00:42:08.017Z,75.65
2022-10-08T00:45:04.942Z,76.03
2022-10-08T00:47:39.628Z,76.15
2022-10-08T00:50:12.203Z,76.30
2022-10-08T00:52:43.455Z,76.39
2022-10-08T00:55:12.547Z,76.41
2022-10-08T00:57:39.153Z,77.05
2022-10-08T01:00:07.886Z,77.01
2022-10-08T01:02:34.378Z,77.10
2022-10-08T01:05:01.416Z,77.15
2022-10-08T01:07:36.926Z,76.95
2022-10-08T01:10:10.802Z,76.90
2022-10-08T01:12:44.390Z,76.89
2022-10-08T01:15:19.115Z,76.85
2022-10-08T01:17:56.638Z,77.02
2022-10-08T01:20:36.263Z,76.96
2022-10-08T01:23:34.304Z,77.02
2022-10-08T01:26:26.212Z,77.15
2022-10-08T01:29:02.041Z,77.33
2022-10-08T01:31:33.270Z,77.18
2022-10-08T01:34:02.947Z,77.27
2022-10-08T01:36:34.074Z,77.57
2022-10-08T01:39:03.915Z,77.77
2022-10-08T01:41:32.500Z,77.84
2022-10-08T01:44:04.366Z,77.88
2022-10-08T01:46:32.781Z,78.05
2022-10-08T01:49:02.921Z,77.81
2022-10-08T01:51:32.165Z,78.02
2022-10-08T01:54:01.635Z,77.91
2022-10-08T01:56:32.006Z,77.98
2022-10-08T01:59:03.026Z,77.70
2022-10-08T02:01:36.283Z,77.56
2022-10-08T02:04:03.371Z,77.53
2022-10-08T02:06:33.763Z,77.43
2022-10-08T02:09:00.382Z,77.34
2022-10-08T02:11:26.892Z,77.64
2022-10-08T02:13:53.332Z,77.64
2022-10-08T02:16:27.847Z,77.38
2022-10-08T02:19:03.617Z,77.56
2022-10-08T02:21:30.181Z,77.62
2022-10-08T02:24:07.838Z,77.62
2022-10-08T02:26:38.743Z,78.29
2022-10-08T02:29:10.565Z,78.76
2022-10-08T02:31:44.739Z,78.29
2022-10-08T02:34:16.301Z,78.17
2022-10-08T02:36:48.257Z,78.29
2022-10-08T02:39:17.540Z,78.38
2022-10-08T02:41:49.095Z,78.20
2022-10-08T02:44:20.131Z,78.56
2022-10-08T02:46:52.576Z,78.60
2022-10-08T02:49:23.463Z,78.81
2022-10-08T02:51:52.798Z,78.41
2022-10-08T02:54:22.277Z,78.01
2022-10-08T02:56:54.488Z,78.27
2022-10-08T02:59:22.222Z,78.13
2022-10-08T03:01:54.637Z,77.84
2022-10-08T03:04:27.594Z,77.95
2022-10-08T03:06:55.321Z,77.50
2022-10-08T03:09:24.144Z,77.43
2022-10-08T03:11:51.550Z,77.68
2022-10-08T03:14:20.328Z,77.85
2022-10-08T03:16:48.041Z,78.07
2022-10-08T03:19:18.309Z,78.11
2022-10-08T03:21:46.996Z,78.07
2022-10-08T03:24:14.837Z,78.39
2022-10-08T03:26:41.822Z,78.35
2022-10-08T03:29:08.890Z,78.22
2022-10-08T03:31:36.220Z,78.32
2022-10-08T03:34:02.687Z,78.41
2022-10-08T03:36:30.651Z,78.65
2022-10-08T03:38:57.558Z,78.85
2022-10-08T03:41:24.065Z,78.99
2022-10-08T03:43:50.506Z,79.13
2022-10-08T03:46:17.014Z,79.25
2022-10-08T03:48:43.513Z,79.73
2022-10-08T03:51:13.470Z,80.16
2022-10-08T03:53:42.610Z,80.23
2022-10-08T03:56:11.664Z,80.29
2022-10-08T03:58:38.583Z,80.25
2022-10-08T04:01:07.215Z,80.66
2022-10-08T04:03:33.954Z,80.83
2022-10-08T04:06:00.635Z,80.51
2022-10-08T04:08:27.645Z,80.84
2022-10-08T04:10:55.858Z,80.70
2022-10-08T04:13:22.710Z,80.73
2022-10-08T04:15:49.455Z,81.16
2022-10-08T04:18:16.539Z,80.53
2022-10-08T04:20:43.658Z,80.95
2022-10-08T04:23:10.890Z,80.85
2022-10-08T04:25:37.726Z,80.64
2022-10-08T04:28:06.139Z,80.44
2022-10-08T04:30:32.872Z,80.58
2022-10-08T04:32:59.340Z,80.26
2022-10-08T04:35:25.987Z,80.37
2022-10-08T04:37:52.397Z,80.15
2022-10-08T04:40:18.820Z,80.20
2022-10-08T04:42:50.459Z,80.23
2022-10-08T04:45:18.251Z,80.43
2022-10-08T04:47:44.713Z,79.89
2022-10-08T04:50:11.333Z,79.76
2022-10-08T04:52:37.848Z,79.31
2022-10-08T04:55:04.897Z,79.24
2022-10-08T04:57:31.584Z,79.16
2022-10-08T05:00:17.528Z,79.33
2022-10-08T05:02:46.200Z,79.18
2022-10-08T05:05:12.914Z,79.21
2022-10-08T05:07:39.369Z,79.11
2022-10-08T05:10:06.656Z,79.16
2022-10-08T05:12:33.190Z,79.18
2022-10-08T05:14:59.617Z,79.13
2022-10-08T05:17:26.904Z,79.44
2022-10-08T05:19:54.685Z,79.76
2022-10-08T05:22:21.129Z,79.91
2022-10-08T05:24:47.572Z,80.02
2022-10-08T05:27:14.034Z,80.32
2022-10-08T05:29:40.506Z,80.33
2022-10-08T05:32:06.942Z,80.36
2022-10-08T05:34:33.449Z,80.40
2022-10-08T05:37:01.171Z,80.59
2022-10-08T05:39:27.787Z,80.84
2022-10-08T05:41:54.279Z,80.92
2022-10-08T05:44:20.898Z,80.86
2022-10-08T05:46:47.379Z,80.54
2022-10-08T05:49:18.389Z,80.92
2022-10-08T05:51:44.802Z,80.76
2022-10-08T05:54:12.739Z,81.31
2022-10-08T05:56:39.212Z,81.70
2022-10-08T05:59:05.674Z,81.79
2022-10-08T06:01:33.079Z,82.29
2022-10-08T06:04:08.894Z,82.56
2022-10-08T06:06:36.605Z,82.88
2022-10-08T06:09:04.047Z,83.07
2022-10-08T06:11:34.681Z,83.45
2022-10-08T06:14:02.042Z,83.37
2022-10-08T06:16:29.875Z,84.30
2022-10-08T06:18:56.930Z,84.77
2022-10-08T06:21:24.771Z,85.34
2022-10-08T06:23:53.441Z,85.61
2022-10-08T06:26:21.089Z,85.61
2022-10-08T06:28:49.845Z,85.75
2022-10-08T06:31:16.895Z,85.92
2022-10-08T06:33:43.602Z,85.97
2022-10-08T06:36:15.083Z,86.27
2022-10-08T06:38:41.858Z,87.17
2022-10-08T06:41:08.382Z,87.42
2022-10-08T06:43:35.103Z,87.86
2022-10-08T06:46:05.707Z,88.44
2022-10-08T06:48:32.933Z,88.43
2022-10-08T06:50:59.657Z,88.54
2022-10-08T06:53:27.958Z,88.68
2022-10-08T06:55:57.519Z,88.50
2022-10-08T06:58:23.959Z,88.10
2022-10-08T07:00:50.588Z,87.87
2022-10-08T07:03:18.604Z,88.05
2022-10-08T07:05:45.116Z,87.94
2022-10-08T07:08:13.623Z,87.93
2022-10-08T07:10:40.144Z,88.07
2022-10-08T07:13:06.675Z,87.85
2022-10-08T07:15:33.202Z,87.20
2022-10-08T07:17:59.718Z,87.17
2022-10-08T07:20:27.634Z,86.70
2022-10-08T07:22:54.116Z,86.46
2022-10-08T07:25:20.599Z,86.16
2022-10-08T07:27:47.206Z,86.24
2022-10-08T07:30:13.704Z,85.61
2022-10-08T07:32:40.209Z,85.28
2022-10-08T07:35:08.276Z,84.98
2022-10-08T07:37:36.227Z,84.60
2022-10-08T07:40:02.873Z,84.49
2022-10-08T07:42:29.472Z,84.20
2022-10-08T07:44:55.990Z,83.73
2022-10-08T07:47:22.592Z,83.43
2022-10-08T07:49:49.147Z,83.28
2022-10-08T07:52:15.697Z,83.48
2022-10-08T07:54:43.517Z,82.80
2022-10-08T07:57:10.271Z,82.81
2022-10-08T07:59:36.828Z,82.42
2022-10-08T08:02:03.854Z,82.43
2022-10-08T08:04:30.566Z,82.69
2022-10-08T08:06:57.112Z,81.80
2022-10-08T08:09:23.662Z,80.90
2022-10-08T08:11:51.572Z,80.98
2022-10-08T08:14:18.182Z,80.82
2022-10-08T08:16:44.878Z,80.16
2022-10-08T08:19:11.582Z,80.20
2022-10-08T08:21:38.838Z,79.72
2022-10-08T08:24:08.085Z,78.47
2022-10-08T08:26:36.318Z,77.41
2022-10-08T08:29:05.606Z,77.06
2022-10-08T08:31:34.149Z,77.16
2022-10-08T08:34:03.447Z,76.71
2022-10-08T08:36:31.989Z,76.60
2022-10-08T08:38:58.814Z,76.10
2022-10-08T08:41:52.054Z,75.78
2022-10-08T08:44:23.284Z,75.20
2022-10-08T08:46:56.275Z,75.16
2022-10-08T08:49:28.560Z,75.67
2022-10-08T08:51:56.554Z,75.48
2022-10-08T08:54:23.148Z,74.53
2022-10-08T08:56:50.974Z,75.22
2022-10-08T08:59:25.725Z,75.24
2022-10-08T09:01:56.375Z,74.50
2022-10-08T09:04:28.016Z,74.71
2022-10-08T09:06:55.888Z,73.50
2022-10-08T09:09:29.861Z,73.34
2022-10-08T09:11:57.334Z,72.96
2022-10-08T09:14:35.618Z,72.98
2022-10-08T09:17:12.896Z,72.62
2022-10-08T09:19:40.617Z,71.72
2022-10-08T09:22:19.379Z,71.15
2022-10-08T09:24:47.027Z,72.08
2022-10-08T09:27:15.067Z,70.63
2022-10-08T09:29:43.180Z,70.94
2022-10-08T09:32:16.142Z,70.98
2022-10-08T09:34:43.639Z,70.86
2022-10-08T09:37:19.334Z,70.70
2022-10-08T09:40:07.046Z,70.23
2022-10-08T09:42:33.543Z,70.72
2022-10-08T09:45:01.394Z,70.18
2022-10-08T09:47:27.965Z,69.94
2022-10-08T09:50:03.647Z,69.12
2022-10-08T09:52:31.094Z,69.62
2022-10-08T09:55:02.482Z,68.95
2022-10-08T09:57:31.332Z,69.71
2022-10-08T10:00:00.332Z,69.66
2022-10-08T10:02:31.269Z,69.59
2022-10-08T10:04:59.030Z,69.66
2022-10-08T10:07:36.677Z,69.22
2022-10-08T10:10:05.795Z,69.21
2022-10-08T10:12:35.494Z,68.92
2022-10-08T10:15:05.129Z,68.83
2022-10-08T10:17:37.002Z,69.06
2022-10-08T10:20:12.964Z,68.74
2022-10-08T10:22:52.649Z,68.83
2022-10-08T10:25:29.931Z,67.90
2022-10-08T10:28:02.589Z,67.99
2022-10-08T10:30:30.051Z,67.93
2022-10-08T10:33:04.533Z,68.30
2022-10-08T10:35:32.598Z,68.48
2022-10-08T10:38:06.711Z,68.16
2022-10-08T10:40:40.143Z,68.17
2022-10-08T10:43:14.014Z,68.23
2022-10-08T10:45:44.156Z,68.67
2022-10-08T10:48:14.505Z,68.48
2022-10-08T10:50:52.344Z,69.05
2022-10-08T10:53:25.024Z,68.60
2022-10-08T10:56:01.103Z,68.86
2022-10-08T10:58:40.057Z,69.05
2022-10-08T11:01:22.403Z,69.15
2022-10-08T11:03:58.967Z,68.98
2022-10-08T11:06:52.358Z,68.64
2022-10-08T11:09:27.190Z,68.79
2022-10-08T11:11:59.708Z,68.87
2022-10-08T11:14:40.491Z,68.88
2022-10-08T11:17:22.173Z,68.90
2022-10-08T11:19:57.357Z,69.62
2022-10-08T11:22:30.697Z,69.48
2022-10-08T11:25:10.719Z,69.26
2022-10-08T11:27:46.199Z,69.17
2022-10-08T11:30:15.111Z,69.74
2022-10-08T11:32:45.223Z,69.31
2022-10-08T11:35:23.000Z,69.13
2022-10-08T11:37:56.264Z,70.13
2022-10-08T11:40:28.442Z,69.55
2022-10-08T11:43:04.021Z,69.97
2022-10-08T11:45:38.415Z,69.20
2022-10-08T11:48:30.208Z,68.80
2022-10-08T11:51:29.107Z,68.34
2022-10-08T11:54:15.305Z,67.17
2022-10-08T11:56:44.944Z,67.33
2022-10-08T11:59:36.297Z,66.22
2022-10-08T12:02:05.583Z,66.62
2022-10-08T12:04:34.863Z,66.76
2022-10-08T12:07:21.945Z,66.69
2022-10-08T12:10:22.704Z,65.56
2022-10-08T12:13:24.017Z,64.93
2022-10-08T12:15:55.637Z,64.24
2022-10-08T12:18:52.426Z,64.10
2022-10-08T12:21:52.836Z,64.63
2022-10-08T12:24:54.255Z,65.25
2022-10-08T12:27:34.676Z,65.92
2022-10-08T12:30:04.347Z,66.82
2022-10-08T12:32:52.471Z,66.42
2022-10-08T12:35:22.027Z,65.51
2022-10-08T12:38:24.129Z,65.30
2022-10-08T12:41:01.060Z,64.67
2022-10-08T12:43:36.382Z,63.68
2022-10-08T12:46:15.237Z,62.26
2022-10-08T12:48:49.270Z,61.79
2022-10-08T12:51:24.910Z,62.20
2022-10-08T12:53:51.988Z,61.10
2022-10-08T12:56:23.940Z,60.69
2022-10-08T12:58:51.132Z,61.24
2022-10-08T13:01:19.563Z,61.71
2022-10-08T13:03:46.452Z,62.13
2022-10-08T13:06:24.877Z,60.85
2022-10-08T13:08:51.416Z,60.89
2022-10-08T13:11:18.007Z,60.61
2022-10-08T13:13:47.841Z,60.54
2022-10-08T13:16:16.558Z,61.15
2022-10-08T13:18:45.039Z,60.23
2022-10-08T13:21:33.251Z,60.40
2022-10-08T13:24:00.700Z,60.31
2022-10-08T13:26:37.825Z,60.80
2022-10-08T13:29:19.414Z,61.38
2022-10-08T13:31:52.975Z,59.98
2022-10-08T13:34:19.609Z,60.37
2022-10-08T13:36:48.807Z,60.28
2022-10-08T13:39:23.860Z,59.30
2022-10-08T13:41:54.269Z,58.97
2022-10-08T13:44:22.321Z,58.00
2022-10-08T13:46:48.850Z,57.96
2022-10-08T13:49:19.363Z,58.01
2022-10-08T13:51:45.984Z,58.01
2022-10-08T13:54:20.777Z,58.20
2022-10-08T13:56:47.498Z,58.21
2022-10-08T13:59:14.106Z,58.17
2022-10-08T14:01:42.009Z,58.25
2022-10-08T14:04:08.628Z,58.36
2022-10-08T14:06:35.604Z,58.82
2022-10-08T14:09:06.946Z,57.93
2022-10-08T14:11:34.561Z,57.71
2022-10-08T14:14:01.083Z,58.75
2022-10-08T14:16:28.094Z,59.72
2022-10-08T14:18:59.248Z,60.66
2022-10-08T14:21:26.013Z,61.85
2022-10-08T14:23:52.526Z,60.57
2022-10-08T14:26:19.180Z,62.96
2022-10-08T14:28:45.696Z,64.01
2022-10-08T14:31:13.592Z,63.73
2022-10-08T14:33:40.580Z,63.39
2022-10-08T14:36:15.663Z,63.35
2022-10-08T14:38:42.283Z,63.74
2022-10-08T14:41:08.937Z,63.92
2022-10-08T14:43:35.512Z,65.41
2022-10-08T14:46:02.239Z,63.99
2022-10-08T14:48:28.861Z,63.54
2022-10-08T14:50:56.218Z,62.63
2022-10-08T14:53:25.395Z,63.43
2022-10-08T14:56:11.194Z,63.37
2022-10-08T14:58:38.998Z,64.44
2022-10-08T15:01:05.707Z,63.50
2022-10-08T15:03:32.237Z,63.62
2022-10-08T15:05:59.921Z,63.73
2022-10-08T15:08:28.845Z,63.68
2022-10-08T15:10:55.356Z,62.39
2022-10-08T15:13:22.006Z,61.89
2022-10-08T15:15:48.475Z,61.50
2022-10-08T15:18:15.170Z,62.05
2022-10-08T15:20:41.691Z,62.84
2022-10-08T15:23:08.192Z,62.99
2022-10-08T15:25:36.286Z,63.73
2022-10-08T15:28:02.803Z,64.77
2022-10-08T15:30:29.494Z,65.18
2022-10-08T15:32:56.110Z,65.50
2022-10-08T15:35:22.679Z,65.77
2022-10-08T15:37:49.261Z,65.73
2022-10-08T15:40:15.753Z,65.81
2022-10-08T15:42:44.453Z,66.69
2022-10-08T15:45:11.153Z,66.21
2022-10-08T15:47:37.641Z,66.68
2022-10-08T15:50:04.898Z,66.18
2022-10-08T15:52:32.126Z,66.80
2022-10-08T15:54:58.579Z,67.40
2022-10-08T15:57:25.127Z,67.10
2022-10-08T15:59:53.639Z,67.15
2022-10-08T16:02:20.295Z,67.30
2022-10-08T16:04:47.543Z,67.01
2022-10-08T16:07:14.179Z,67.13
2022-10-08T16:09:40.653Z,67.20
2022-10-08T16:12:07.438Z,67.46
2022-10-08T16:14:34.056Z,67.46
2022-10-08T16:17:01.957Z,67.89
2022-10-08T16:19:28.554Z,67.79
2022-10-08T16:21:57.058Z,68.25
2022-10-08T16:24:23.923Z,68.08
2022-10-08T16:26:50.771Z,68.54
2022-10-08T16:29:18.371Z,68.62
2022-10-08T16:31:46.575Z,68.68
2022-10-08T16:34:16.665Z,69.10
2022-10-08T16:36:44.077Z,69.10
2022-10-08T16:39:12.462Z,69.37
2022-10-08T16:41:39.031Z,69.71
2022-10-08T16:44:11.976Z,69.58
2022-10-08T16:46:41.251Z,69.37
2022-10-08T16:49:12.387Z,69.57
2022-10-08T16:51:40.653Z,69.43
2022-10-08T16:54:08.873Z,69.81
2022-10-08T16:56:37.234Z,70.03
2022-10-08T16:59:06.088Z,70.31
2022-10-08T17:01:34.015Z,70.12
2022-10-08T17:04:01.271Z,70.11
2022-10-08T17:06:28.195Z,70.36
2022-10-08T17:08:56.291Z,70.52
2022-10-08T17:11:22.770Z,70.55
2022-10-08T17:13:51.260Z,70.59
2022-10-08T17:16:19.739Z,70.44
2022-10-08T17:18:46.940Z,70.81
2022-10-08T17:21:13.897Z,70.91
2022-10-08T17:23:40.645Z,71.11
2022-10-08T17:26:10.275Z,71.22
2022-10-08T17:28:38.671Z,71.20
2022-10-08T17:31:07.407Z,71.05
2022-10-08T17:33:36.181Z,71.56
2022-10-08T17:36:05.122Z,71.55
2022-10-08T17:38:32.286Z,71.82
2022-10-08T17:40:58.808Z,71.90
2022-10-08T17:43:26.754Z,72.00
2022-10-08T17:45:53.585Z,72.27
2022-10-08T17:48:20.148Z,72.34
2022-10-08T17:50:46.732Z,72.80
2022-10-08T17:53:13.386Z,72.79
2022-10-08T17:55:39.898Z,73.03
2022-10-08T17:58:06.412Z,73.11
2022-10-08T18:00:34.489Z,73.47
2022-10-08T18:03:01.126Z,73.38
2022-10-08T18:05:28.036Z,73.55
2022-10-08T18:07:54.570Z,73.68
2022-10-08T18:10:21.085Z,73.61
2022-10-08T18:12:47.863Z,74.03
2022-10-08T18:15:17.300Z,74.10
2022-10-08T18:17:45.164Z,74.14
2022-10-08T18:20:11.703Z,74.52
2022-10-08T18:22:38.197Z,74.49
2022-10-08T18:25:05.617Z,75.06
2022-10-08T18:27:32.090Z,74.91
2022-10-08T18:29:58.510Z,75.06
2022-10-08T18:32:24.940Z,74.96
2022-10-08T18:34:52.796Z,74.84
2022-10-08T18:37:19.308Z,75.29
2022-10-08T18:39:45.961Z,75.13
2022-10-08T18:42:12.342Z,75.86
2022-10-08T18:44:38.783Z,75.86
2022-10-08T18:47:05.614Z,76.17
2022-10-08T18:49:32.249Z,75.83
2022-10-08T18:52:00.159Z,76.70
2022-10-08T18:54:26.708Z,76.53
2022-10-08T18:56:53.158Z,76.50
2022-10-08T18:59:19.573Z,76.63
2022-10-08T19:01:47.320Z,76.65
2022-10-08T19:04:16.125Z,76.27
2022-10-08T19:06:44.374Z,76.74
2022-10-08T19:09:12.710Z,76.97
2022-10-08T19:11:44.719Z,77.00
2022-10-08T19:14:13.467Z,78.02
2022-10-08T19:16:40.494Z,77.86
2022-10-08T19:19:08.484Z,77.60
2022-10-08T19:21:35.961Z,77.59
2022-10-08T19:24:02.445Z,77.42
2022-10-08T19:26:30.225Z,77.71
2022-10-08T19:28:57.822Z,77.74
2022-10-08T19:31:26.350Z,77.86
2022-10-08T19:33:54.469Z,77.62
2022-10-08T19:36:22.386Z,77.83
2022-10-08T19:38:51.646Z,77.79
2022-10-08T19:41:18.059Z,77.64
2022-10-08T19:43:45.886Z,77.94
2022-10-08T19:46:12.424Z,78.09
2022-10-08T19:48:39.094Z,77.95
2022-10-08T19:51:06.719Z,78.48
2022-10-08T19:53:33.692Z,78.23
2022-10-08T19:56:00.417Z,78.27
2022-10-08T19:58:26.872Z,78.01
2022-10-08T20:00:59.289Z,78.23
2022-10-08T20:03:25.872Z,78.06
2022-10-08T20:05:52.358Z,78.10
2022-10-08T20:08:18.762Z,78.27
2022-10-08T20:10:45.267Z,78.29
2022-10-08T20:13:11.735Z,77.90
2022-10-08T20:15:38.358Z,78.07
2022-10-08T20:18:06.319Z,77.93
2022-10-08T20:20:33.737Z,77.72
2022-10-08T20:23:00.370Z,77.90
2022-10-08T20:25:26.798Z,78.02
2022-10-08T20:27:53.255Z,78.20
2022-10-08T20:30:19.747Z,77.95
2022-10-08T20:32:46.416Z,78.31
2022-10-08T20:35:14.549Z,78.73
2022-10-08T20:37:41.001Z,78.43
2022-10-08T20:40:07.882Z,78.82
2022-10-08T20:42:34.328Z,78.50
2022-10-08T20:45:00.730Z,78.94
2022-10-08T20:47:27.164Z,78.96
2022-10-08T20:49:53.605Z,79.22
2022-10-08T20:52:21.403Z,78.65
2022-10-08T20:54:47.827Z,79.10
2022-10-08T20:57:14.376Z,78.97
2022-10-08T20:59:40.814Z,79.17
2022-10-08T21:02:07.314Z,78.85
2022-10-08T21:04:33.793Z,78.71
2022-10-08T21:07:00.248Z,78.57
2022-10-08T21:09:28.057Z,78.37
2022-10-08T21:11:54.491Z,78.69
2022-10-08T21:14:22.757Z,78.87
2022-10-08T21:16:49.597Z,79.22
2022-10-08T21:19:19.052Z,79.07
2022-10-08T21:21:45.593Z,79.08
2022-10-08T21:24:12.136Z,79.22
2022-10-08T21:26:41.399Z,78.71
2022-10-08T21:29:09.364Z,78.64
2022-10-08T21:31:37.725Z,78.40
2022-10-08T21:34:04.995Z,79.00
2022-10-08T21:36:33.791Z,78.95
2022-10-08T21:39:01.383Z,79.19
2022-10-08T21:41:29.642Z,79.33
2022-10-08T21:43:59.969Z,79.04
2022-10-08T21:46:29.177Z,79.65
2022-10-08T21:48:57.643Z,79.75
2022-10-08T21:51:24.514Z,79.42
2022-10-08T21:53:53.002Z,78.91
2022-10-08T21:56:20.874Z,79.51
2022-10-08T21:58:48.752Z,79.46
2022-10-08T22:01:22.241Z,79.40
2022-10-08T22:03:48.616Z,79.46
2022-10-08T22:06:15.157Z,79.61
2022-10-08T22:08:41.585Z,79.47
2022-10-08T22:11:08.073Z,79.63
2022-10-08T22:13:34.644Z,79.51
2022-10-08T22:16:02.853Z,79.67
2022-10-08T22:18:32.392Z,80.00
2022-10-08T22:21:01.513Z,79.51
2022-10-08T22:23:28.165Z,80.03
2022-10-08T22:25:56.944Z,79.56
2022-10-08T22:28:24.050Z,79.32
2022-10-08T22:30:50.512Z,79.13
2022-10-08T22:33:17.215Z,79.13
2022-10-08T22:35:45.393Z,78.98
2022-10-08T22:38:12.339Z,79.06
2022-10-08T22:40:38.816Z,79.07
2022-10-08T22:43:06.067Z,79.10
2022-10-08T22:45:36.220Z,79.09
2022-10-08T22:48:02.722Z,78.99
2022-10-08T22:50:29.195Z,79.28
2022-10-08T22:52:56.933Z,79.45
2022-10-08T22:55:23.397Z,79.33
2022-10-08T22:57:49.802Z,79.24
2022-10-08T23:00:16.349Z,79.08
2022-10-08T23:02:42.779Z,79.39
2022-10-08T23:05:09.290Z,78.93
2022-10-08T23:07:35.869Z,79.23
2022-10-08T23:10:04.181Z,79.40
2022-10-08T23:12:30.611Z,79.46
2022-10-08T23:14:57.065Z,79.31
2022-10-08T23:17:23.519Z,79.44
2022-10-08T23:19:49.963Z,79.49
2022-10-08T23:22:16.360Z,79.17
2022-10-08T23:24:42.757Z,79.43
2022-10-08T23:27:10.573Z,79.63
2022-10-08T23:29:36.988Z,80.00
2022-10-08T23:32:03.483Z,80.00
2022-10-08T23:34:29.957Z,80.01
2022-10-08T23:36:56.366Z,79.90
2022-10-08T23:39:22.902Z,80.16
2022-10-08T23:41:49.293Z,80.38
2022-10-08T23:44:17.142Z,80.33
2022-10-08T23:46:43.550Z,80.88
2022-10-08T23:49:10.100Z,80.51
2022-10-08T23:51:36.645Z,80.38
2022-10-08T23:54:03.394Z,80.27
2022-10-08T23:56:29.874Z,80.57
2022-10-08T23:58:56.369Z,80.59
